sensor_id;sensor_type;location;lat;lon;timestamp;P1;durP1;ratioP1;P2;durP2;ratioP2
47605;SDS011;55448;51.330;4.946;2022-09-01T00:02:11;4.00;;;1.77;;
47605;SDS011;55448;51.330;4.946;2022-09-01T00:04:40;6.28;;;2.00;;
47605;SDS011;55448;51.330;4.946;2022-09-01T00:07:08;4.85;;;1.90;;
47605;SDS011;55448;51.330;4.946;2022-09-01T00:09:36;3.55;;;1.85;;
47605;SDS011;55448;51.330;4.946;2022-09-01T00:12:03;7.53;;;2.53;;
47605;SDS011;55448;51.330;4.946;2022-09-01T00:14:32;3.65;;;2.13;;
47605;SDS011;55448;51.330;4.946;2022-09-01T00:17:02;7.07;;;2.25;;
47605;SDS011;55448;51.330;4.946;2022-09-01T00:19:30;8.63;;;2.05;;
47605;SDS011;55448;51.330;4.946;2022-09-01T00:21:57;3.85;;;2.67;;
47605;SDS011;55448;51.330;4.946;2022-09-01T00:24:24;6.75;;;2.08;;
47605;SDS011;55448;51.330;4.946;2022-09-01T00:26:50;5.50;;;2.42;;
47605;SDS011;55448;51.330;4.946;2022-09-01T00:29:17;3.88;;;2.15;;
47605;SDS011;55448;51.330;4.946;2022-09-01T00:31:43;3.70;;;2.10;;
47605;SDS011;55448;51.330;4.946;2022-09-01T00:34:09;5.13;;;2.20;;
47605;SDS011;55448;51.330;4.946;2022-09-01T00:36:35;2.55;;;1.90;;
47605;SDS011;55448;51.330;4.946;2022-09-01T00:39:01;11.63;;;2.40;;
47605;SDS011;55448;51.330;4.946;2022-09-01T00:41:28;12.45;;;2.10;;
47605;SDS011;55448;51.330;4.946;2022-09-01T00:43:57;7.45;;;2.13;;
47605;SDS011;55448;51.330;4.946;2022-09-01T00:46:26;3.20;;;2.00;;
47605;SDS011;55448;51.330;4.946;2022-09-01T00:49:02;6.25;;;2.60;;
47605;SDS011;55448;51.330;4.946;2022-09-01T00:51:41;6.40;;;1.88;;
47605;SDS011;55448;51.330;4.946;2022-09-01T00:54:10;5.13;;;2.10;;
47605;SDS011;55448;51.330;4.946;2022-09-01T00:56:40;6.82;;;1.80;;
47605;SDS011;55448;51.330;4.946;2022-09-01T00:59:07;3.45;;;1.60;;
47605;SDS011;55448;51.330;4.946;2022-09-01T01:01:35;7.72;;;2.08;;
47605;SDS011;55448;51.330;4.946;2022-09-01T01:04:02;7.88;;;2.08;;
47605;SDS011;55448;51.330;4.946;2022-09-01T01:06:30;3.65;;;1.92;;
47605;SDS011;55448;51.330;4.946;2022-09-01T01:08:57;3.72;;;2.03;;
47605;SDS011;55448;51.330;4.946;2022-09-01T01:11:28;7.47;;;2.10;;
47605;SDS011;55448;51.330;4.946;2022-09-01T01:14:01;5.70;;;2.45;;
47605;SDS011;55448;51.330;4.946;2022-09-01T01:16:37;4.45;;;1.63;;
47605;SDS011;55448;51.330;4.946;2022-09-01T01:22:26;9.20;;;1.70;;
47605;SDS011;55448;51.330;4.946;2022-09-01T01:25:23;4.65;;;1.98;;
47605;SDS011;55448;51.330;4.946;2022-09-01T01:27:50;4.88;;;2.25;;
47605;SDS011;55448;51.330;4.946;2022-09-01T01:30:16;4.80;;;1.98;;
47605;SDS011;55448;51.330;4.946;2022-09-01T01:32:44;7.78;;;2.40;;
47605;SDS011;55448;51.330;4.946;2022-09-01T01:35:12;5.47;;;2.10;;
47605;SDS011;55448;51.330;4.946;2022-09-01T01:37:39;6.50;;;2.20;;
47605;SDS011;55448;51.330;4.946;2022-09-01T01:40:17;2.85;;;1.85;;
47605;SDS011;55448;51.330;4.946;2022-09-01T01:42:48;14.18;;;2.35;;
47605;SDS011;55448;51.330;4.946;2022-09-01T01:45:17;3.92;;;2.20;;
47605;SDS011;55448;51.330;4.946;2022-09-01T01:47:45;9.27;;;2.40;;
47605;SDS011;55448;51.330;4.946;2022-09-01T01:50:15;8.13;;;2.58;;
47605;SDS011;55448;51.330;4.946;2022-09-01T01:52:41;7.00;;;2.45;;
47605;SDS011;55448;51.330;4.946;2022-09-01T01:55:07;6.80;;;2.15;;
47605;SDS011;55448;51.330;4.946;2022-09-01T01:57:36;6.20;;;1.75;;
47605;SDS011;55448;51.330;4.946;2022-09-01T02:00:13;3.60;;;1.83;;
47605;SDS011;55448;51.330;4.946;2022-09-01T02:02:48;5.43;;;1.92;;
47605;SDS011;55448;51.330;4.946;2022-09-01T02:05:20;6.10;;;2.42;;
47605;SDS011;55448;51.330;4.946;2022-09-01T02:07:52;8.20;;;1.83;;
47605;SDS011;55448;51.330;4.946;2022-09-01T02:10:24;5.53;;;1.98;;
47605;SDS011;55448;51.330;4.946;2022-09-01T02:12:51;3.75;;;2.25;;
47605;SDS011;55448;51.330;4.946;2022-09-01T02:15:18;6.80;;;2.47;;
47605;SDS011;55448;51.330;4.946;2022-09-01T02:17:44;4.18;;;2.10;;
47605;SDS011;55448;51.330;4.946;2022-09-01T02:20:11;6.07;;;2.08;;
47605;SDS011;55448;51.330;4.946;2022-09-01T02:22:40;3.75;;;2.10;;
47605;SDS011;55448;51.330;4.946;2022-09-01T02:25:07;8.73;;;3.58;;
47605;SDS011;55448;51.330;4.946;2022-09-01T02:27:34;7.50;;;2.47;;
47605;SDS011;55448;51.330;4.946;2022-09-01T02:30:03;6.80;;;3.20;;
47605;SDS011;55448;51.330;4.946;2022-09-01T02:32:34;12.60;;;3.05;;
47605;SDS011;55448;51.330;4.946;2022-09-01T02:35:01;4.72;;;2.17;;
47605;SDS011;55448;51.330;4.946;2022-09-01T02:37:31;9.93;;;2.85;;
47605;SDS011;55448;51.330;4.946;2022-09-01T02:39:58;4.82;;;2.20;;
47605;SDS011;55448;51.330;4.946;2022-09-01T02:42:24;4.03;;;2.60;;
47605;SDS011;55448;51.330;4.946;2022-09-01T02:44:54;8.93;;;2.00;;
47605;SDS011;55448;51.330;4.946;2022-09-01T02:47:21;7.65;;;2.25;;
47605;SDS011;55448;51.330;4.946;2022-09-01T02:49:48;6.65;;;2.05;;
47605;SDS011;55448;51.330;4.946;2022-09-01T02:52:14;5.30;;;2.00;;
47605;SDS011;55448;51.330;4.946;2022-09-01T02:54:42;6.43;;;2.50;;
47605;SDS011;55448;51.330;4.946;2022-09-01T02:57:09;6.85;;;2.10;;
47605;SDS011;55448;51.330;4.946;2022-09-01T02:59:35;7.55;;;2.40;;
47605;SDS011;55448;51.330;4.946;2022-09-01T03:02:01;8.35;;;2.10;;
47605;SDS011;55448;51.330;4.946;2022-09-01T03:04:28;6.72;;;2.33;;
47605;SDS011;55448;51.330;4.946;2022-09-01T03:06:59;7.13;;;2.58;;
47605;SDS011;55448;51.330;4.946;2022-09-01T03:09:26;5.75;;;2.28;;
47605;SDS011;55448;51.330;4.946;2022-09-01T03:11:52;5.15;;;2.45;;
47605;SDS011;55448;51.330;4.946;2022-09-01T03:14:21;6.95;;;2.63;;
47605;SDS011;55448;51.330;4.946;2022-09-01T03:16:48;4.68;;;2.20;;
47605;SDS011;55448;51.330;4.946;2022-09-01T03:19:14;5.88;;;2.75;;
47605;SDS011;55448;51.330;4.946;2022-09-01T03:21:41;10.48;;;2.75;;
47605;SDS011;55448;51.330;4.946;2022-09-01T03:24:08;11.93;;;2.45;;
47605;SDS011;55448;51.330;4.946;2022-09-01T03:26:39;8.50;;;2.63;;
47605;SDS011;55448;51.330;4.946;2022-09-01T03:29:05;8.30;;;2.35;;
47605;SDS011;55448;51.330;4.946;2022-09-01T03:31:32;2.67;;;1.90;;
47605;SDS011;55448;51.330;4.946;2022-09-01T03:33:59;5.40;;;2.58;;
47605;SDS011;55448;51.330;4.946;2022-09-01T03:36:25;6.70;;;2.13;;
47605;SDS011;55448;51.330;4.946;2022-09-01T03:38:52;8.30;;;2.60;;
47605;SDS011;55448;51.330;4.946;2022-09-01T03:41:20;10.82;;;2.70;;
47605;SDS011;55448;51.330;4.946;2022-09-01T03:43:49;4.78;;;2.38;;
47605;SDS011;55448;51.330;4.946;2022-09-01T03:46:19;3.88;;;2.00;;
47605;SDS011;55448;51.330;4.946;2022-09-01T03:48:47;4.47;;;2.40;;
47605;SDS011;55448;51.330;4.946;2022-09-01T03:51:18;4.25;;;2.28;;
47605;SDS011;55448;51.330;4.946;2022-09-01T03:53:46;5.28;;;2.75;;
47605;SDS011;55448;51.330;4.946;2022-09-01T03:56:12;5.07;;;2.47;;
47605;SDS011;55448;51.330;4.946;2022-09-01T03:58:39;5.03;;;2.60;;
47605;SDS011;55448;51.330;4.946;2022-09-01T04:01:07;4.20;;;2.63;;
47605;SDS011;55448;51.330;4.946;2022-09-01T04:03:35;9.88;;;2.60;;
47605;SDS011;55448;51.330;4.946;2022-09-01T04:06:03;5.47;;;2.45;;
47605;SDS011;55448;51.330;4.946;2022-09-01T04:08:31;5.43;;;2.33;;
47605;SDS011;55448;51.330;4.946;2022-09-01T04:10:58;7.72;;;2.42;;
47605;SDS011;55448;51.330;4.946;2022-09-01T04:13:28;5.30;;;2.70;;
47605;SDS011;55448;51.330;4.946;2022-09-01T04:15:58;7.10;;;2.47;;
47605;SDS011;55448;51.330;4.946;2022-09-01T04:18:24;5.82;;;2.70;;
47605;SDS011;55448;51.330;4.946;2022-09-01T04:20:51;10.18;;;2.72;;
47605;SDS011;55448;51.330;4.946;2022-09-01T04:23:51;5.95;;;2.47;;
47605;SDS011;55448;51.330;4.946;2022-09-01T04:26:12;7.68;;;2.58;;
47605;SDS011;55448;51.330;4.946;2022-09-01T04:28:45;4.10;;;2.67;;
47605;SDS011;55448;51.330;4.946;2022-09-01T04:31:20;5.85;;;2.65;;
47605;SDS011;55448;51.330;4.946;2022-09-01T04:33:47;7.93;;;2.35;;
47605;SDS011;55448;51.330;4.946;2022-09-01T04:36:29;10.05;;;2.38;;
47605;SDS011;55448;51.330;4.946;2022-09-01T04:41:26;17.77;;;2.85;;
47605;SDS011;55448;51.330;4.946;2022-09-01T04:43:56;3.13;;;2.28;;
47605;SDS011;55448;51.330;4.946;2022-09-01T04:46:23;14.38;;;3.65;;
47605;SDS011;55448;51.330;4.946;2022-09-01T04:48:52;6.65;;;3.10;;
47605;SDS011;55448;51.330;4.946;2022-09-01T04:51:18;5.63;;;2.53;;
47605;SDS011;55448;51.330;4.946;2022-09-01T04:53:45;5.07;;;2.65;;
47605;SDS011;55448;51.330;4.946;2022-09-01T04:56:13;8.23;;;3.10;;
47605;SDS011;55448;51.330;4.946;2022-09-01T04:58:42;8.07;;;2.80;;
47605;SDS011;55448;51.330;4.946;2022-09-01T05:01:12;5.78;;;2.65;;
47605;SDS011;55448;51.330;4.946;2022-09-01T05:03:46;8.27;;;2.72;;
47605;SDS011;55448;51.330;4.946;2022-09-01T05:06:25;13.68;;;3.50;;
47605;SDS011;55448;51.330;4.946;2022-09-01T05:08:52;4.53;;;3.22;;
47605;SDS011;55448;51.330;4.946;2022-09-01T05:11:20;12.38;;;3.10;;
47605;SDS011;55448;51.330;4.946;2022-09-01T05:13:48;16.20;;;3.72;;
47605;SDS011;55448;51.330;4.946;2022-09-01T05:16:18;7.97;;;3.40;;
47605;SDS011;55448;51.330;4.946;2022-09-01T05:18:46;8.13;;;3.05;;
47605;SDS011;55448;51.330;4.946;2022-09-01T05:21:18;14.85;;;3.92;;
47605;SDS011;55448;51.330;4.946;2022-09-01T05:23:46;14.35;;;3.30;;
47605;SDS011;55448;51.330;4.946;2022-09-01T05:26:19;5.38;;;2.95;;
47605;SDS011;55448;51.330;4.946;2022-09-01T05:28:48;6.95;;;2.50;;
47605;SDS011;55448;51.330;4.946;2022-09-01T05:31:20;8.23;;;3.22;;
47605;SDS011;55448;51.330;4.946;2022-09-01T05:33:47;9.68;;;2.78;;
47605;SDS011;55448;51.330;4.946;2022-09-01T05:36:17;13.57;;;3.10;;
47605;SDS011;55448;51.330;4.946;2022-09-01T05:38:45;9.70;;;3.22;;
47605;SDS011;55448;51.330;4.946;2022-09-01T05:41:12;8.38;;;2.95;;
47605;SDS011;55448;51.330;4.946;2022-09-01T05:43:39;7.55;;;2.55;;
47605;SDS011;55448;51.330;4.946;2022-09-01T05:48:37;10.35;;;2.78;;
47605;SDS011;55448;51.330;4.946;2022-09-01T05:51:04;7.55;;;3.33;;
47605;SDS011;55448;51.330;4.946;2022-09-01T05:53:31;15.75;;;3.58;;
47605;SDS011;55448;51.330;4.946;2022-09-01T05:55:58;21.38;;;3.35;;
47605;SDS011;55448;51.330;4.946;2022-09-01T05:58:31;8.68;;;3.30;;
47605;SDS011;55448;51.330;4.946;2022-09-01T06:00:58;11.25;;;3.05;;
47605;SDS011;55448;51.330;4.946;2022-09-01T06:03:24;11.63;;;3.85;;
47605;SDS011;55448;51.330;4.946;2022-09-01T06:05:52;7.50;;;3.13;;
47605;SDS011;55448;51.330;4.946;2022-09-01T06:08:21;9.63;;;2.97;;
47605;SDS011;55448;51.330;4.946;2022-09-01T06:10:49;6.90;;;3.17;;
47605;SDS011;55448;51.330;4.946;2022-09-01T06:13:16;11.13;;;3.00;;
47605;SDS011;55448;51.330;4.946;2022-09-01T06:15:45;7.25;;;3.00;;
47605;SDS011;55448;51.330;4.946;2022-09-01T06:18:13;7.55;;;3.38;;
47605;SDS011;55448;51.330;4.946;2022-09-01T06:20:39;8.27;;;3.42;;
47605;SDS011;55448;51.330;4.946;2022-09-01T06:23:07;10.05;;;3.75;;
47605;SDS011;55448;51.330;4.946;2022-09-01T06:25:36;7.13;;;2.80;;
47605;SDS011;55448;51.330;4.946;2022-09-01T06:28:03;10.93;;;3.50;;
47605;SDS011;55448;51.330;4.946;2022-09-01T06:30:29;13.25;;;3.38;;
47605;SDS011;55448;51.330;4.946;2022-09-01T06:32:57;9.30;;;3.40;;
47605;SDS011;55448;51.330;4.946;2022-09-01T06:35:25;8.98;;;4.05;;
47605;SDS011;55448;51.330;4.946;2022-09-01T06:37:53;9.23;;;3.40;;
47605;SDS011;55448;51.330;4.946;2022-09-01T06:40:20;15.70;;;3.95;;
47605;SDS011;55448;51.330;4.946;2022-09-01T06:42:49;12.85;;;3.78;;
47605;SDS011;55448;51.330;4.946;2022-09-01T06:45:17;8.98;;;3.95;;
47605;SDS011;55448;51.330;4.946;2022-09-01T06:47:45;8.32;;;3.50;;
47605;SDS011;55448;51.330;4.946;2022-09-01T06:50:13;9.50;;;3.83;;
47605;SDS011;55448;51.330;4.946;2022-09-01T06:52:43;11.90;;;3.97;;
47605;SDS011;55448;51.330;4.946;2022-09-01T06:55:11;5.90;;;3.25;;
47605;SDS011;55448;51.330;4.946;2022-09-01T06:57:38;7.65;;;3.72;;
47605;SDS011;55448;51.330;4.946;2022-09-01T07:00:09;6.15;;;3.88;;
47605;SDS011;55448;51.330;4.946;2022-09-01T07:02:45;9.95;;;4.22;;
47605;SDS011;55448;51.330;4.946;2022-09-01T07:05:12;20.98;;;6.55;;
47605;SDS011;55448;51.330;4.946;2022-09-01T07:07:45;16.30;;;4.32;;
47605;SDS011;55448;51.330;4.946;2022-09-01T07:10:15;7.25;;;4.00;;
47605;SDS011;55448;51.330;4.946;2022-09-01T07:12:45;10.77;;;4.53;;
47605;SDS011;55448;51.330;4.946;2022-09-01T07:15:12;9.73;;;4.40;;
47605;SDS011;55448;51.330;4.946;2022-09-01T07:17:41;11.73;;;4.57;;
47605;SDS011;55448;51.330;4.946;2022-09-01T07:20:14;8.20;;;4.13;;
47605;SDS011;55448;51.330;4.946;2022-09-01T07:22:40;9.50;;;3.72;;
47605;SDS011;55448;51.330;4.946;2022-09-01T07:25:07;4.65;;;3.25;;
47605;SDS011;55448;51.330;4.946;2022-09-01T07:27:36;9.07;;;3.50;;
47605;SDS011;55448;51.330;4.946;2022-09-01T07:30:03;11.07;;;3.28;;
47605;SDS011;55448;51.330;4.946;2022-09-01T07:32:34;11.98;;;2.78;;
47605;SDS011;55448;51.330;4.946;2022-09-01T07:35:01;5.88;;;2.85;;
47605;SDS011;55448;51.330;4.946;2022-09-01T07:37:31;4.65;;;2.40;;
47605;SDS011;55448;51.330;4.946;2022-09-01T07:40:01;3.75;;;2.40;;
47605;SDS011;55448;51.330;4.946;2022-09-01T07:42:32;7.32;;;2.80;;
47605;SDS011;55448;51.330;4.946;2022-09-01T07:44:58;9.45;;;3.05;;
47605;SDS011;55448;51.330;4.946;2022-09-01T07:47:24;7.60;;;2.70;;
47605;SDS011;55448;51.330;4.946;2022-09-01T07:49:50;7.50;;;2.75;;
47605;SDS011;55448;51.330;4.946;2022-09-01T07:52:16;5.30;;;2.63;;
47605;SDS011;55448;51.330;4.946;2022-09-01T07:54:42;5.20;;;3.25;;
47605;SDS011;55448;51.330;4.946;2022-09-01T07:57:08;8.98;;;2.97;;
47605;SDS011;55448;51.330;4.946;2022-09-01T07:59:34;6.63;;;3.03;;
47605;SDS011;55448;51.330;4.946;2022-09-01T08:02:00;5.40;;;3.17;;
47605;SDS011;55448;51.330;4.946;2022-09-01T08:04:30;12.98;;;3.17;;
47605;SDS011;55448;51.330;4.946;2022-09-01T08:06:58;5.10;;;2.80;;
47605;SDS011;55448;51.330;4.946;2022-09-01T08:09:25;4.90;;;2.70;;
47605;SDS011;55448;51.330;4.946;2022-09-01T08:11:51;4.32;;;2.53;;
47605;SDS011;55448;51.330;4.946;2022-09-01T08:14:17;5.10;;;2.50;;
47605;SDS011;55448;51.330;4.946;2022-09-01T08:16:43;5.65;;;2.50;;
47605;SDS011;55448;51.330;4.946;2022-09-01T08:19:08;3.20;;;2.20;;
47605;SDS011;55448;51.330;4.946;2022-09-01T08:21:34;5.75;;;2.70;;
47605;SDS011;55448;51.330;4.946;2022-09-01T08:24:00;16.10;;;3.13;;
47605;SDS011;55448;51.330;4.946;2022-09-01T08:26:25;7.30;;;2.55;;
47605;SDS011;55448;51.330;4.946;2022-09-01T08:28:51;5.90;;;2.53;;
47605;SDS011;55448;51.330;4.946;2022-09-01T08:31:18;5.25;;;2.50;;
47605;SDS011;55448;51.330;4.946;2022-09-01T08:33:45;2.72;;;2.25;;
47605;SDS011;55448;51.330;4.946;2022-09-01T08:36:12;6.60;;;2.67;;
47605;SDS011;55448;51.330;4.946;2022-09-01T08:38:39;7.03;;;2.42;;
47605;SDS011;55448;51.330;4.946;2022-09-01T08:41:31;4.22;;;2.55;;
47605;SDS011;55448;51.330;4.946;2022-09-01T08:46:48;6.22;;;2.40;;
47605;SDS011;55448;51.330;4.946;2022-09-01T08:49:22;5.70;;;2.60;;
47605;SDS011;55448;51.330;4.946;2022-09-01T08:51:55;6.38;;;2.65;;
47605;SDS011;55448;51.330;4.946;2022-09-01T08:54:47;5.47;;;2.28;;
47605;SDS011;55448;51.330;4.946;2022-09-01T08:57:35;5.80;;;2.35;;
47605;SDS011;55448;51.330;4.946;2022-09-01T09:00:05;5.57;;;2.50;;
47605;SDS011;55448;51.330;4.946;2022-09-01T09:02:56;4.93;;;2.30;;
47605;SDS011;55448;51.330;4.946;2022-09-01T09:10:56;8.23;;;2.17;;
47605;SDS011;55448;51.330;4.946;2022-09-01T09:13:54;3.33;;;1.80;;
47605;SDS011;55448;51.330;4.946;2022-09-01T09:16:39;13.68;;;2.63;;
47605;SDS011;55448;51.330;4.946;2022-09-01T09:22:06;3.50;;;2.20;;
47605;SDS011;55448;51.330;4.946;2022-09-01T09:24:51;4.40;;;2.50;;
47605;SDS011;55448;51.330;4.946;2022-09-01T09:27:23;2.20;;;2.00;;
47605;SDS011;55448;51.330;4.946;2022-09-01T09:29:55;11.05;;;2.80;;
47605;SDS011;55448;51.330;4.946;2022-09-01T09:32:21;3.28;;;2.15;;
47605;SDS011;55448;51.330;4.946;2022-09-01T09:34:49;6.00;;;2.33;;
47605;SDS011;55448;51.330;4.946;2022-09-01T09:42:40;5.35;;;2.10;;
47605;SDS011;55448;51.330;4.946;2022-09-01T09:45:24;3.40;;;2.20;;
47605;SDS011;55448;51.330;4.946;2022-09-01T09:47:53;3.45;;;2.08;;
47605;SDS011;55448;51.330;4.946;2022-09-01T09:50:25;5.18;;;2.22;;
47605;SDS011;55448;51.330;4.946;2022-09-01T09:55:53;3.47;;;1.83;;
47605;SDS011;55448;51.330;4.946;2022-09-01T09:58:28;6.30;;;1.92;;
47605;SDS011;55448;51.330;4.946;2022-09-01T10:01:09;8.50;;;1.70;;
47605;SDS011;55448;51.330;4.946;2022-09-01T10:03:59;6.03;;;1.80;;
47605;SDS011;55448;51.330;4.946;2022-09-01T10:06:30;7.47;;;2.30;;
47605;SDS011;55448;51.330;4.946;2022-09-01T10:09:03;5.47;;;1.48;;
47605;SDS011;55448;51.330;4.946;2022-09-01T10:14:18;2.65;;;1.45;;
47605;SDS011;55448;51.330;4.946;2022-09-01T10:19:42;3.70;;;1.48;;
47605;SDS011;55448;51.330;4.946;2022-09-01T10:22:28;2.92;;;1.70;;
47605;SDS011;55448;51.330;4.946;2022-09-01T10:24:55;3.20;;;1.60;;
47605;SDS011;55448;51.330;4.946;2022-09-01T10:27:22;2.75;;;1.55;;
47605;SDS011;55448;51.330;4.946;2022-09-01T10:29:51;3.38;;;1.50;;
47605;SDS011;55448;51.330;4.946;2022-09-01T10:32:24;2.50;;;1.45;;
47605;SDS011;55448;51.330;4.946;2022-09-01T10:34:53;3.28;;;1.55;;
47605;SDS011;55448;51.330;4.946;2022-09-01T10:37:20;3.22;;;1.73;;
47605;SDS011;55448;51.330;4.946;2022-09-01T10:42:34;3.33;;;1.60;;
47605;SDS011;55448;51.330;4.946;2022-09-01T10:45:00;5.55;;;1.75;;
47605;SDS011;55448;51.330;4.946;2022-09-01T10:52:51;1.58;;;1.45;;
47605;SDS011;55448;51.330;4.946;2022-09-01T10:55:18;3.42;;;1.75;;
47605;SDS011;55448;51.330;4.946;2022-09-01T10:57:52;5.60;;;1.80;;
47605;SDS011;55448;51.330;4.946;2022-09-01T11:05:58;5.70;;;1.30;;
47605;SDS011;55448;51.330;4.946;2022-09-01T11:14:01;3.78;;;1.92;;
47605;SDS011;55448;51.330;4.946;2022-09-01T11:16:32;2.30;;;1.48;;
47605;SDS011;55448;51.330;4.946;2022-09-01T11:27:11;1.98;;;1.50;;
47605;SDS011;55448;51.330;4.946;2022-09-01T11:29:58;4.93;;;1.63;;
47605;SDS011;55448;51.330;4.946;2022-09-01T11:32:32;6.05;;;1.60;;
47605;SDS011;55448;51.330;4.946;2022-09-01T11:35:01;1.85;;;1.63;;
47605;SDS011;55448;51.330;4.946;2022-09-01T11:37:29;2.80;;;1.60;;
47605;SDS011;55448;51.330;4.946;2022-09-01T11:39:58;4.20;;;1.15;;
47605;SDS011;55448;51.330;4.946;2022-09-01T11:44:55;1.80;;;1.52;;
47605;SDS011;55448;51.330;4.946;2022-09-01T11:50:04;4.20;;;1.70;;
47605;SDS011;55448;51.330;4.946;2022-09-01T11:52:58;3.70;;;1.73;;
47605;SDS011;55448;51.330;4.946;2022-09-01T11:58:13;3.03;;;1.75;;
47605;SDS011;55448;51.330;4.946;2022-09-01T12:01:15;2.78;;;1.60;;
47605;SDS011;55448;51.330;4.946;2022-09-01T12:03:41;3.63;;;1.67;;
47605;SDS011;55448;51.330;4.946;2022-09-01T12:06:08;2.70;;;1.60;;
47605;SDS011;55448;51.330;4.946;2022-09-01T12:08:38;9.00;;;2.00;;
47605;SDS011;55448;51.330;4.946;2022-09-01T12:11:06;3.25;;;1.70;;
47605;SDS011;55448;51.330;4.946;2022-09-01T12:13:42;4.10;;;1.70;;
47605;SDS011;55448;51.330;4.946;2022-09-01T12:16:28;1.98;;;1.63;;
47605;SDS011;55448;51.330;4.946;2022-09-01T12:18:55;1.85;;;1.40;;
47605;SDS011;55448;51.330;4.946;2022-09-01T12:21:24;2.35;;;1.50;;
47605;SDS011;55448;51.330;4.946;2022-09-01T12:24:15;3.13;;;1.50;;
47605;SDS011;55448;51.330;4.946;2022-09-01T12:29:12;7.93;;;1.65;;
47605;SDS011;55448;51.330;4.946;2022-09-01T12:31:39;4.40;;;1.63;;
47605;SDS011;55448;51.330;4.946;2022-09-01T12:40:16;3.28;;;1.63;;
47605;SDS011;55448;51.330;4.946;2022-09-01T12:42:25;4.55;;;1.83;;
47605;SDS011;55448;51.330;4.946;2022-09-01T12:50:43;3.53;;;1.60;;
47605;SDS011;55448;51.330;4.946;2022-09-01T12:52:44;3.35;;;1.70;;
47605;SDS011;55448;51.330;4.946;2022-09-01T12:55:17;5.47;;;1.58;;
47605;SDS011;55448;51.330;4.946;2022-09-01T12:57:49;8.20;;;1.73;;
47605;SDS011;55448;51.330;4.946;2022-09-01T13:00:17;6.30;;;1.63;;
47605;SDS011;55448;51.330;4.946;2022-09-01T13:02:47;4.00;;;1.60;;
47605;SDS011;55448;51.330;4.946;2022-09-01T13:05:18;8.68;;;1.77;;
47605;SDS011;55448;51.330;4.946;2022-09-01T13:07:55;3.40;;;1.52;;
47605;SDS011;55448;51.330;4.946;2022-09-01T13:10:26;1.23;;;1.10;;
47605;SDS011;55448;51.330;4.946;2022-09-01T13:12:55;7.50;;;1.70;;
47605;SDS011;55448;51.330;4.946;2022-09-01T13:15:22;2.78;;;1.50;;
47605;SDS011;55448;51.330;4.946;2022-09-01T13:17:49;2.42;;;1.65;;
47605;SDS011;55448;51.330;4.946;2022-09-01T13:20:16;5.25;;;1.67;;
47605;SDS011;55448;51.330;4.946;2022-09-01T13:22:42;2.28;;;1.70;;
47605;SDS011;55448;51.330;4.946;2022-09-01T13:25:11;1.67;;;1.42;;
47605;SDS011;55448;51.330;4.946;2022-09-01T13:27:39;4.25;;;1.40;;
47605;SDS011;55448;51.330;4.946;2022-09-01T13:30:09;3.95;;;1.67;;
47605;SDS011;55448;51.330;4.946;2022-09-01T13:32:36;4.68;;;1.55;;
47605;SDS011;55448;51.330;4.946;2022-09-01T13:35:02;2.63;;;1.60;;
47605;SDS011;55448;51.330;4.946;2022-09-01T13:37:28;2.50;;;1.52;;
47605;SDS011;55448;51.330;4.946;2022-09-01T13:39:54;2.72;;;1.30;;
47605;SDS011;55448;51.330;4.946;2022-09-01T13:42:20;8.15;;;1.80;;
47605;SDS011;55448;51.330;4.946;2022-09-01T13:44:46;3.15;;;1.73;;
47605;SDS011;55448;51.330;4.946;2022-09-01T13:47:12;5.13;;;1.80;;
47605;SDS011;55448;51.330;4.946;2022-09-01T13:49:38;4.03;;;1.58;;
47605;SDS011;55448;51.330;4.946;2022-09-01T13:52:03;5.45;;;1.55;;
47605;SDS011;55448;51.330;4.946;2022-09-01T13:54:29;1.75;;;1.42;;
47605;SDS011;55448;51.330;4.946;2022-09-01T13:56:55;3.67;;;1.30;;
47605;SDS011;55448;51.330;4.946;2022-09-01T13:59:21;5.53;;;1.70;;
47605;SDS011;55448;51.330;4.946;2022-09-01T14:01:47;6.22;;;1.70;;
47605;SDS011;55448;51.330;4.946;2022-09-01T14:04:13;5.03;;;1.70;;
47605;SDS011;55448;51.330;4.946;2022-09-01T14:06:39;2.78;;;1.70;;
47605;SDS011;55448;51.330;4.946;2022-09-01T14:09:08;3.95;;;1.52;;
47605;SDS011;55448;51.330;4.946;2022-09-01T14:11:35;3.35;;;1.40;;
47605;SDS011;55448;51.330;4.946;2022-09-01T14:14:01;6.57;;;1.60;;
47605;SDS011;55448;51.330;4.946;2022-09-01T14:16:27;2.55;;;1.65;;
47605;SDS011;55448;51.330;4.946;2022-09-01T14:18:53;4.90;;;1.50;;
47605;SDS011;55448;51.330;4.946;2022-09-01T14:21:19;4.53;;;1.70;;
47605;SDS011;55448;51.330;4.946;2022-09-01T14:23:44;4.55;;;1.58;;
47605;SDS011;55448;51.330;4.946;2022-09-01T14:26:14;3.55;;;1.80;;
47605;SDS011;55448;51.330;4.946;2022-09-01T14:28:41;5.93;;;2.40;;
47605;SDS011;55448;51.330;4.946;2022-09-01T14:31:13;4.95;;;1.92;;
47605;SDS011;55448;51.330;4.946;2022-09-01T14:33:42;2.80;;;1.38;;
47605;SDS011;55448;51.330;4.946;2022-09-01T14:36:15;7.90;;;1.73;;
47605;SDS011;55448;51.330;4.946;2022-09-01T14:38:43;4.38;;;1.40;;
47605;SDS011;55448;51.330;4.946;2022-09-01T14:41:11;8.40;;;1.52;;
47605;SDS011;55448;51.330;4.946;2022-09-01T14:43:38;6.40;;;1.55;;
47605;SDS011;55448;51.330;4.946;2022-09-01T14:46:07;3.05;;;1.70;;
47605;SDS011;55448;51.330;4.946;2022-09-01T14:48:34;2.55;;;1.70;;
47605;SDS011;55448;51.330;4.946;2022-09-01T14:51:02;4.32;;;1.60;;
47605;SDS011;55448;51.330;4.946;2022-09-01T14:53:29;3.53;;;1.70;;
47605;SDS011;55448;51.330;4.946;2022-09-01T14:55:55;4.53;;;1.42;;
47605;SDS011;55448;51.330;4.946;2022-09-01T14:58:22;3.83;;;1.50;;
47605;SDS011;55448;51.330;4.946;2022-09-01T15:00:49;8.02;;;2.00;;
47605;SDS011;55448;51.330;4.946;2022-09-01T15:03:14;5.78;;;1.60;;
47605;SDS011;55448;51.330;4.946;2022-09-01T15:05:40;2.45;;;1.92;;
47605;SDS011;55448;51.330;4.946;2022-09-01T15:08:07;2.90;;;1.70;;
47605;SDS011;55448;51.330;4.946;2022-09-01T15:10:33;3.75;;;1.65;;
47605;SDS011;55448;51.330;4.946;2022-09-01T15:13:00;2.70;;;1.58;;
47605;SDS011;55448;51.330;4.946;2022-09-01T15:15:27;4.93;;;1.92;;
47605;SDS011;55448;51.330;4.946;2022-09-01T15:17:53;3.03;;;1.70;;
47605;SDS011;55448;51.330;4.946;2022-09-01T15:20:20;4.30;;;1.70;;
47605;SDS011;55448;51.330;4.946;2022-09-01T15:23:05;3.25;;;1.73;;
47605;SDS011;55448;51.330;4.946;2022-09-01T15:25:31;3.22;;;1.83;;
47605;SDS011;55448;51.330;4.946;2022-09-01T15:27:58;3.63;;;2.00;;
47605;SDS011;55448;51.330;4.946;2022-09-01T15:30:23;2.30;;;1.80;;
47605;SDS011;55448;51.330;4.946;2022-09-01T15:32:50;7.53;;;1.90;;
47605;SDS011;55448;51.330;4.946;2022-09-01T15:35:18;4.22;;;1.98;;
47605;SDS011;55448;51.330;4.946;2022-09-01T15:37:46;2.17;;;1.42;;
47605;SDS011;55448;51.330;4.946;2022-09-01T15:40:18;1.92;;;1.60;;
47605;SDS011;55448;51.330;4.946;2022-09-01T15:42:44;5.07;;;1.90;;
47605;SDS011;55448;51.330;4.946;2022-09-01T15:45:12;1.75;;;1.65;;
47605;SDS011;55448;51.330;4.946;2022-09-01T15:47:40;3.47;;;1.90;;
47605;SDS011;55448;51.330;4.946;2022-09-01T15:50:07;3.03;;;2.30;;
47605;SDS011;55448;51.330;4.946;2022-09-01T15:55:47;1.90;;;1.60;;
47605;SDS011;55448;51.330;4.946;2022-09-01T15:58:14;7.13;;;2.75;;
47605;SDS011;55448;51.330;4.946;2022-09-01T16:00:42;4.07;;;1.65;;
47605;SDS011;55448;51.330;4.946;2022-09-01T16:03:08;5.10;;;1.77;;
47605;SDS011;55448;51.330;4.946;2022-09-01T16:05:35;3.45;;;1.52;;
47605;SDS011;55448;51.330;4.946;2022-09-01T16:08:02;6.72;;;1.88;;
47605;SDS011;55448;51.330;4.946;2022-09-01T16:10:33;4.65;;;1.55;;
47605;SDS011;55448;51.330;4.946;2022-09-01T16:13:00;3.90;;;1.63;;
47605;SDS011;55448;51.330;4.946;2022-09-01T16:15:26;3.38;;;1.98;;
47605;SDS011;55448;51.330;4.946;2022-09-01T16:21:00;4.78;;;1.60;;
47605;SDS011;55448;51.330;4.946;2022-09-01T16:23:40;6.38;;;2.42;;
47605;SDS011;55448;51.330;4.946;2022-09-01T16:26:09;1.85;;;1.55;;
47605;SDS011;55448;51.330;4.946;2022-09-01T16:28:36;7.07;;;1.80;;